Time;durP1;ratioP1;P1;durP2;ratioP2;P2;SDS_P1;SDS_P2;PMS_P1;PMS_P2;Temp;Humidity;BMP_temperature;BMP_pressure;BME280_temperature;BME280_humidity;BME280_pressure;Samples;Min_cycle;Max_cycle;Signal;HPM_P1;HPM_P2
2021/07/19 00:01:08;;;;;;;;;36.50;33.50;;;;;27.58;70.07;100397.53;5103807;28;8852;-73
2021/07/19 00:04:04;;;;;;;;;37.60;32.20;;;;;27.90;71.53;100395.69;5098185;28;8829;-73
2021/07/19 00:06:59;;;;;;;;;34.20;31.80;;;;;28.00;70.62;100397.41;5094615;28;8820;-73
2021/07/19 00:09:28;;;;;;;;;32.50;31.00;;;;;27.97;69.57;100393.41;5096967;28;8836;-73
2021/07/19 00:12:23;;;;;;;;;33.40;30.40;;;;;27.70;70.93;100391.09;5094692;28;8947;-73
2021/07/19 00:14:52;;;;;;;;;31.50;29.75;;;;;27.49;71.50;100385.25;5107446;28;8857;-74
2021/07/19 00:17:25;;;;;;;;;34.75;32.00;;;;;26.94;73.93;100393.03;5097810;28;8900;-73
2021/07/19 00:19:54;;;;;;;;;37.00;33.25;;;;;26.85;74.60;100385.97;5095730;28;8840;-73
2021/07/19 00:22:26;;;;;;;;;32.50;31.00;;;;;27.01;75.81;100382.25;5095382;28;8839;-73
2021/07/19 00:24:54;;;;;;;;;39.25;34.75;;;;;27.06;74.26;100387.38;5102590;28;8835;-73
2021/07/19 00:27:23;;;;;;;;;37.50;34.25;;;;;26.67;75.77;100391.34;5095565;28;8928;-73
2021/07/19 00:30:10;;;;;;;;;37.00;33.25;;;;;26.86;76.79;100390.41;5102124;28;9559;-73
2021/07/19 00:33:06;;;;;;;;;34.50;31.75;;;;;27.07;75.55;100388.22;5102704;28;8823;-73
2021/07/19 00:36:02;;;;;;;;;32.75;31.00;;;;;27.60;73.49;100380.81;5095021;28;8834;-73
2021/07/19 00:38:30;;;;;;;;;33.75;31.75;;;;;27.87;72.40;100380.38;5095657;28;8832;-73
2021/07/19 00:41:26;;;;;;;;;35.40;32.20;;;;;27.50;72.17;100393.31;5095081;28;8832;-73
2021/07/19 00:44:22;;;;;;;;;34.60;32.00;;;;;27.05;73.42;100387.84;5093890;28;8850;-73
2021/07/19 00:46:52;;;;;;;;;33.25;31.50;;;;;26.64;75.72;100388.63;5094931;28;8824;-73
2021/07/19 00:49:23;;;;;;;;;34.75;32.00;;;;;26.56;76.96;100386.00;5096793;28;8874;-73
2021/07/19 00:51:51;;;;;;;;;35.50;32.50;;;;;27.06;76.39;100397.94;5095171;28;8890;-73
2021/07/19 00:54:20;;;;;;;;;37.75;34.00;;;;;27.26;74.88;100397.75;5103339;28;8835;-73
2021/07/19 00:57:03;;;;;;;;;37.00;33.50;;;;;27.58;73.38;100394.69;5084568;28;8863;-73
2021/07/19 00:59:34;;;;;;;;;39.25;33.75;;;;;27.67;72.73;100397.66;5082765;28;9562;-73
2021/07/19 01:02:17;;;;;;;;;36.00;33.00;;;;;27.40;72.60;100392.44;5094517;28;8831;-73
2021/07/19 01:05:13;;;;;;;;;31.20;30.20;;;;;26.87;76.21;100397.66;5104008;28;8862;-74
2021/07/19 01:08:09;;;;;;;;;33.25;31.25;;;;;26.96;76.36;100404.72;5102209;28;8861;-73
2021/07/19 01:11:05;;;;;;;;;33.75;31.50;;;;;27.52;74.29;100398.53;5113394;28;8867;-73
2021/07/19 01:13:33;;;;;;;;;31.20;30.20;;;;;27.68;73.09;100401.28;5106290;28;8837;-74
2021/07/19 01:16:29;;;;;;;;;33.25;31.00;;;;;27.70;73.08;100399.59;5101436;28;8843;-73
2021/07/19 01:18:57;;;;;;;;;32.50;31.00;;;;;27.85;72.12;100405.63;5094651;28;9724;-73
2021/07/19 01:21:51;;;;;;;;;29.00;28.60;;;;;27.96;71.85;100403.19;5094019;28;8840;-73
2021/07/19 01:24:28;;;;;;;;;35.25;32.00;;;;;28.01;72.02;100401.03;5052335;28;8839;-73
2021/07/19 01:27:08;;;;;;;;;32.40;30.60;;;;;28.06;71.72;100400.44;5100101;28;8845;-73
2021/07/19 01:30:06;;;;;;;;;30.50;29.50;;;;;27.82;72.21;100406.50;5100621;28;8843;-73
2021/07/19 01:32:39;;;;;;;;;33.50;31.50;;;;;27.73;72.80;100402.78;5102246;28;8881;-73
2021/07/19 01:35:39;;;;;;;;;36.00;33.20;;;;;28.07;71.99;100404.91;5082750;28;8860;-73
2021/07/19 01:38:35;;;;;;;;;35.00;32.25;;;;;28.15;71.14;100412.72;5096372;28;8846;-73
2021/07/19 01:41:32;;;;;;;;;32.00;30.60;;;;;28.26;71.21;100415.97;5103261;28;8835;-73
2021/07/19 01:44:29;;;;;;;;;35.20;32.40;;;;;27.95;71.34;100412.97;5103593;28;8842;-73
2021/07/19 01:47:24;;;;;;;;;37.25;33.75;;;;;27.96;72.17;100413.78;5097717;28;8849;-73
2021/07/19 01:50:20;;;;;;;;;36.50;33.00;;;;;27.98;72.12;100417.72;5112899;28;8925;-73
2021/07/19 01:53:17;;;;;;;;;36.25;33.25;;;;;27.92;71.29;100416.75;5093493;28;8828;-73
2021/07/19 01:56:14;;;;;;;;;35.00;32.50;;;;;27.78;72.67;100419.25;5092439;28;8815;-73
2021/07/19 01:59:10;;;;;;;;;38.00;34.00;;;;;27.93;72.16;100409.81;5094341;28;8835;-73
2021/07/19 02:02:07;;;;;;;;;32.80;31.00;;;;;27.98;71.86;100419.78;5097713;28;8825;-76
2021/07/19 02:05:12;;;;;;;;;32.50;31.00;;;;;28.16;71.38;100422.84;5108064;28;8845;-74
2021/07/19 02:08:09;;;;;;;;;36.00;33.00;;;;;28.27;70.88;100422.44;5092925;28;8854;-72
2021/07/19 02:11:07;;;;;;;;;36.25;33.25;;;;;28.00;71.97;100419.34;5092664;28;9622;-73
2021/07/19 02:14:07;;;;;;;;;36.75;33.50;;;;;27.60;72.44;100423.41;5092062;28;8907;-75
2021/07/19 02:17:04;;;;;;;;;37.50;34.00;;;;;27.63;73.28;100433.88;5092166;28;8823;-73
2021/07/19 02:19:59;;;;;;;;;46.00;39.00;;;;;27.61;71.72;100432.75;5100629;28;8839;-73
2021/07/19 02:22:57;;;;;;;;;39.75;35.25;;;;;27.17;74.68;100441.00;5092003;28;8843;-73
2021/07/19 02:25:56;;;;;;;;;41.75;36.25;;;;;27.17;74.08;100441.00;5099679;28;8842;-73
2021/07/19 02:28:53;;;;;;;;;43.75;37.75;;;;;26.70;74.69;100438.69;5092352;28;8835;-72
2021/07/19 02:31:49;;;;;;;;;41.25;36.00;;;;;26.32;78.49;100438.47;5092164;28;8879;-72
2021/07/19 02:34:45;;;;;;;;;38.25;34.50;;;;;26.67;77.89;100441.59;5092147;28;8938;-73
2021/07/19 02:37:42;;;;;;;;;40.50;35.50;;;;;27.17;76.43;100445.88;5092456;28;8835;-72
2021/07/19 02:40:39;;;;;;;;;41.00;36.00;;;;;27.36;75.45;100442.84;5108090;28;8817;-73
2021/07/19 02:43:35;;;;;;;;;39.50;35.25;;;;;27.68;74.13;100438.22;5102990;28;8833;-73
2021/07/19 02:46:32;;;;;;;;;45.50;37.50;;;;;27.79;73.42;100444.38;5111917;28;8833;-73
2021/07/19 02:49:28;;;;;;;;;35.75;32.75;;;;;27.86;73.35;100441.28;5100176;28;8812;-73
2021/07/19 02:52:24;;;;;;;;;39.50;35.00;;;;;28.08;72.41;100446.28;5091516;28;8839;-73
2021/07/19 02:55:21;;;;;;;;;41.75;35.75;;;;;28.14;72.08;100448.09;5091721;28;8811;-73
2021/07/19 02:58:18;;;;;;;;;46.25;39.75;;;;;27.85;71.62;100450.28;5100175;28;8978;-72
2021/07/19 03:01:17;;;;;;;;;40.25;35.75;;;;;27.93;72.74;100452.44;5102805;28;8909;-73
2021/07/19 03:04:14;;;;;;;;;46.75;40.00;;;;;27.67;72.30;100451.63;5079290;28;8820;-73
2021/07/19 03:07:12;;;;;;;;;46.00;38.25;;;;;27.43;73.09;100448.28;5099298;28;8801;-72
2021/07/19 03:10:10;;;;;;;;;45.25;37.75;;;;;27.33;73.80;100457.16;5091379;28;8828;-73
2021/07/19 03:13:11;;;;;;;;;46.00;39.25;;;;;27.49;73.44;100451.38;5091175;28;8819;-73
2021/07/19 03:16:07;;;;;;;;;47.75;40.00;;;;;27.61;73.79;100458.31;5101992;28;8828;-74
2021/07/19 03:19:08;;;;;;;;;44.00;38.00;;;;;27.60;72.31;100457.50;5091930;28;9616;-73
2021/07/19 03:22:04;;;;;;;;;39.25;35.00;;;;;27.68;72.61;100458.09;5100241;28;8942;-73
2021/07/19 03:25:00;;;;;;;;;35.25;32.25;;;;;27.50;69.74;100455.00;5099498;28;8831;-73
2021/07/19 03:27:55;;;;;;;;;39.25;34.50;;;;;27.57;71.48;100457.63;5106397;28;8932;-74
2021/07/19 03:30:52;;;;;;;;;38.00;34.00;;;;;27.62;72.44;100457.06;5103092;28;8840;-73
2021/07/19 03:33:49;;;;;;;;;39.50;34.75;;;;;27.76;71.63;100458.66;5091072;28;8831;-73
2021/07/19 03:36:45;;;;;;;;;35.25;32.75;;;;;27.63;70.09;100453.78;5105034;28;8814;-73
2021/07/19 03:39:42;;;;;;;;;43.25;37.50;;;;;27.65;71.06;100459.78;5111161;28;8841;-74
2021/07/19 03:42:39;;;;;;;;;45.75;37.75;;;;;27.74;70.32;100452.66;5100097;28;8853;-73
2021/07/19 03:45:35;;;;;;;;;44.50;37.75;;;;;27.79;71.42;100458.56;5086600;28;8896;-73
2021/07/19 03:48:31;;;;;;;;;43.50;37.75;;;;;27.82;70.55;100462.53;5091279;28;8958;-72
2021/07/19 03:51:29;;;;;;;;;41.75;36.25;;;;;27.84;71.50;100460.06;5077825;28;8831;-73
2021/07/19 03:54:24;;;;;;;;;42.50;37.25;;;;;27.84;70.75;100460.06;5078247;28;8934;-73
2021/07/19 03:57:21;;;;;;;;;44.75;37.75;;;;;27.98;69.84;100460.38;5091067;28;8843;-73
2021/07/19 04:00:18;;;;;;;;;47.00;40.00;;;;;27.71;68.18;100462.91;5099080;28;8826;-73
2021/07/19 04:04:04;;;;;;;;;45.00;38.75;;;;;28.08;70.32;100469.00;5103614;28;8835;-72
2021/07/19 04:06:34;;;;;;;;;46.00;38.50;;;;;28.12;69.02;100473.31;5094979;28;8811;-73
2021/07/19 04:09:30;;;;;;;;;44.25;37.75;;;;;28.25;69.10;100473.31;5095256;28;8857;-72
2021/07/19 04:12:26;;;;;;;;;43.50;37.50;;;;;28.39;67.70;100478.53;5094634;28;8815;-73
2021/07/19 04:15:22;;;;;;;;;47.25;40.25;;;;;28.40;67.92;100474.44;5102723;28;8958;-73
2021/07/19 04:18:21;;;;;;;;;46.75;39.00;;;;;28.22;68.17;100462.84;5094643;28;8864;-73
2021/07/19 04:21:20;;;;;;;;;47.75;40.00;;;;;28.22;67.52;100471.38;5080944;28;8968;-73
2021/07/19 04:24:16;;;;;;;;;42.75;37.00;;;;;28.29;67.90;100462.59;5100613;28;8859;-73
2021/07/19 04:27:15;;;;;;;;;48.25;41.00;;;;;28.42;66.41;100471.91;5103064;28;8840;-73
2021/07/19 04:30:12;;;;;;;;;45.75;39.75;;;;;28.25;66.24;100468.41;5101370;28;8831;-73
2021/07/19 04:33:08;;;;;;;;;45.50;39.00;;;;;28.44;67.33;100468.59;5080620;28;8980;-73
2021/07/19 04:36:03;;;;;;;;;44.50;38.50;;;;;28.61;67.57;100460.72;5105043;28;8807;-75
2021/07/19 04:39:00;;;;;;;;;40.33;35.67;;;;;28.76;66.54;100468.28;5097248;28;8831;-73
2021/07/19 04:41:56;;;;;;;;;46.00;39.00;;;;;28.77;65.63;100474.78;5098818;28;8799;-73
2021/07/19 04:44:52;;;;;;;;;42.00;36.50;;;;;28.90;66.75;100469.81;5110919;28;8840;-74
2021/07/19 04:47:48;;;;;;;;;43.40;37.60;;;;;29.03;65.28;100464.88;5093070;28;8823;-72
2021/07/19 04:50:45;;;;;;;;;43.40;37.40;;;;;29.07;64.79;100459.06;5097882;28;8862;-73
2021/07/19 04:53:44;;;;;;;;;46.75;40.00;;;;;29.13;63.88;100462.88;5094091;28;8873;-73
2021/07/19 04:56:41;;;;;;;;;44.00;38.00;;;;;29.07;61.96;100462.69;5093675;28;8823;-74
2021/07/19 04:59:44;;;;;;;;;38.50;34.75;;;;;29.26;63.40;100459.94;5099311;28;8817;-75
2021/07/19 05:02:40;;;;;;;;;38.00;34.00;;;;;29.41;63.84;100466.69;5098355;28;8829;-75
2021/07/19 05:05:39;;;;;;;;;44.80;38.80;;;;;29.59;63.35;100458.25;5093648;28;8823;-75
2021/07/19 05:08:37;;;;;;;;;44.50;38.00;;;;;29.63;62.48;100460.97;5096608;28;8859;-72
2021/07/19 05:11:34;;;;;;;;;44.60;38.20;;;;;29.85;62.40;100464.56;5098291;28;8912;-75
2021/07/19 05:14:29;;;;;;;;;44.60;37.60;;;;;29.83;60.90;100457.75;5106505;28;8852;-72
2021/07/19 05:17:27;;;;;;;;;43.00;37.00;;;;;29.90;61.30;100468.81;5110193;28;8855;-75
2021/07/19 05:20:22;;;;;;;;;45.60;38.60;;;;;29.90;61.38;100463.94;5101571;28;8867;-75
2021/07/19 05:23:23;;;;;;;;;44.40;37.40;;;;;29.96;61.38;100466.94;5106427;28;8837;-75
2021/07/19 05:26:20;;;;;;;;;42.80;37.00;;;;;30.13;61.59;100468.28;5095792;28;8854;-73
2021/07/19 05:29:15;;;;;;;;;44.60;38.40;;;;;30.27;61.25;100463.25;5094829;28;8830;-75
2021/07/19 05:32:11;;;;;;;;;47.40;40.40;;;;;30.37;61.29;100462.03;5093514;28;8869;-75
2021/07/19 05:35:07;;;;;;;;;47.00;40.00;;;;;30.42;61.54;100464.22;5093272;28;9679;-75
2021/07/19 05:38:03;;;;;;;;;43.60;37.40;;;;;30.64;60.79;100462.03;5093339;28;8816;-75
2021/07/19 05:40:59;;;;;;;;;46.00;38.20;;;;;30.75;60.21;100469.34;5097334;28;9616;-73
2021/07/19 05:43:54;;;;;;;;;48.00;39.25;;;;;30.92;59.68;100468.56;5107198;28;8829;-73
2021/07/19 05:46:50;;;;;;;;;48.40;39.60;;;;;30.79;57.94;100464.28;5112289;28;8834;-73
2021/07/19 05:49:46;;;;;;;;;57.00;45.25;;;;;31.06;57.44;100464.25;5102990;28;8827;-72
2021/07/19 05:52:41;;;;;;;;;50.20;42.60;;;;;31.21;57.28;100465.19;5095323;28;8918;-72
2021/07/19 05:55:37;;;;;;;;;51.75;44.25;;;;;31.26;58.87;100467.41;5099502;28;8823;-74
2021/07/19 05:58:33;;;;;;;;;55.00;45.50;;;;;31.28;56.55;100469.78;5092287;28;8892;-73
2021/07/19 06:01:28;;;;;;;;;56.25;46.25;;;;;31.42;60.07;100468.31;5092334;28;8807;-74
2021/07/19 06:04:24;;;;;;;;;55.50;45.25;;;;;31.62;59.15;100471.44;5091937;28;8869;-74
2021/07/19 06:07:20;;;;;;;;;53.25;44.25;;;;;31.62;60.00;100465.72;5094901;28;8934;-74
2021/07/19 06:10:16;;;;;;;;;58.25;47.50;;;;;31.75;60.54;100476.97;5097339;28;8823;-73
2021/07/19 06:13:11;;;;;;;;;51.75;43.25;;;;;31.66;60.95;100465.53;5097664;28;8863;-74
2021/07/19 06:16:09;;;;;;;;;58.25;47.75;;;;;31.50;61.82;100469.56;5081689;28;9637;-74
2021/07/19 06:19:04;;;;;;;;;66.00;51.50;;;;;31.25;61.70;100465.84;5092172;28;8816;-73
2021/07/19 06:22:00;;;;;;;;;61.00;49.50;;;;;31.58;61.71;100470.81;5098658;28;8898;-74
2021/07/19 06:24:57;;;;;;;;;60.25;49.25;;;;;31.59;62.00;100468.75;5092033;28;8854;-74
2021/07/19 06:27:53;;;;;;;;;63.00;50.75;;;;;31.39;62.71;100461.50;5102185;28;8848;-74
2021/07/19 06:30:53;;;;;;;;;60.00;49.33;;;;;31.55;60.79;100472.56;5100097;28;8815;-76
2021/07/19 06:33:49;;;;;;;;;67.00;55.25;;;;;31.72;60.47;100469.34;5098551;28;9001;-75
2021/07/19 06:36:44;;;;;;;;;65.25;54.25;;;;;31.94;60.11;100461.31;5094438;28;8821;-75
2021/07/19 06:39:40;;;;;;;;;68.25;57.50;;;;;32.04;59.11;100464.91;5084217;28;9586;-74
2021/07/19 06:42:35;;;;;;;;;68.00;59.50;;;;;32.30;58.88;100462.38;5071790;28;8849;-75
2021/07/19 06:45:32;;;;;;;;;67.00;55.25;;;;;32.49;57.98;100457.34;5075023;28;8941;-74
2021/07/19 06:48:28;;;;;;;;;64.00;51.00;;;;;32.62;56.80;100463.59;5081098;28;8826;-75
2021/07/19 06:51:23;;;;;;;;;65.25;51.50;;;;;32.32;55.82;100465.56;5072626;28;9574;-73
2021/07/19 06:54:19;;;;;;;;;62.25;51.00;;;;;32.38;55.92;100459.97;5079547;28;8930;-73
2021/07/19 06:57:15;;;;;;;;;58.75;47.00;;;;;32.32;56.24;100460.63;5058949;28;9562;-73
2021/07/19 07:00:11;;;;;;;;;57.00;47.25;;;;;32.71;54.90;100454.94;5063410;28;8900;-74
2021/07/19 07:03:07;;;;;;;;;53.40;45.00;;;;;32.78;53.35;100454.56;5071521;28;8825;-74
2021/07/19 07:06:04;;;;;;;;;59.50;47.00;;;;;33.06;53.59;100460.06;5079723;28;8908;-75
2021/07/19 07:08:59;;;;;;;;;64.50;49.25;;;;;33.16;53.93;100456.59;5071380;28;8825;-74
2021/07/19 07:11:55;;;;;;;;;59.50;47.75;;;;;33.17;52.98;100446.72;5078435;28;8901;-75
2021/07/19 07:14:51;;;;;;;;;43.20;37.40;;;;;33.36;52.73;100452.28;5072232;28;8966;-74
2021/07/19 07:17:46;;;;;;;;;50.00;42.20;;;;;33.50;51.13;100454.34;5071417;28;8854;-73
2021/07/19 07:20:43;;;;;;;;;49.00;42.00;;;;;33.76;50.67;100456.59;5066252;28;8860;-73
2021/07/19 07:23:39;;;;;;;;;47.60;40.60;;;;;33.77;49.31;100456.09;5057733;28;8948;-73
2021/07/19 07:26:36;;;;;;;;;44.40;38.20;;;;;33.93;49.36;100458.44;5075473;28;8830;-73
2021/07/19 07:29:33;;;;;;;;;44.40;37.60;;;;;33.81;48.60;100456.66;5086884;28;8851;-73
2021/07/19 07:32:02;;;;;;;;;41.40;35.80;;;;;34.18;47.85;100456.97;5091869;28;8933;-75
2021/07/19 07:34:31;;;;;;;;;48.60;41.20;;;;;34.49;45.57;100461.31;5082278;28;8916;-74
2021/07/19 07:37:26;;;;;;;;;40.40;35.00;;;;;34.56;43.73;100455.13;5071692;28;8952;-73
2021/07/19 07:40:22;;;;;;;;;47.20;40.60;;;;;34.72;45.61;100460.28;5095305;28;8886;-74
2021/07/19 07:43:18;;;;;;;;;50.60;42.60;;;;;35.03;42.88;100458.81;5097216;28;8851;-74
2021/07/19 07:46:14;;;;;;;;;50.00;42.00;;;;;35.17;41.79;100460.78;5089628;28;8839;-75
2021/07/19 07:49:10;;;;;;;;;67.75;59.00;;;;;35.35;42.39;100456.78;5102660;28;9562;-74
2021/07/19 07:52:07;;;;;;;;;66.75;55.50;;;;;35.37;42.74;100465.69;5104905;28;8816;-74
2021/07/19 07:55:04;;;;;;;;;57.00;44.80;;;;;35.67;41.66;100462.56;5106066;28;8913;-74
2021/07/19 07:58:01;;;;;;;;;44.80;36.60;;;;;35.78;40.24;100454.00;5110181;28;8842;-73
2021/07/19 08:00:56;;;;;;;;;44.00;37.00;;;;;35.78;39.71;100454.81;5116049;28;8860;-73
2021/07/19 08:03:52;;;;;;;;;29.80;27.00;;;;;35.73;39.46;100451.88;5111575;28;9656;-74
2021/07/19 08:06:48;;;;;;;;;27.40;27.40;;;;;35.76;38.99;100451.66;5106876;28;8827;-72
2021/07/19 08:09:43;;;;;;;;;20.80;20.80;;;;;36.14;37.71;100449.56;5108007;28;8825;-73
2021/07/19 08:12:39;;;;;;;;;26.00;26.00;;;;;36.16;37.52;100453.50;5094273;28;9623;-73
2021/07/19 08:15:37;;;;;;;;;21.20;21.20;;;;;36.17;38.66;100449.31;5099534;28;8850;-71
2021/07/19 08:18:32;;;;;;;;;26.00;26.00;;;;;36.25;37.66;100452.50;5096875;28;8862;-71
2021/07/19 08:21:28;;;;;;;;;24.80;23.20;;;;;36.36;38.00;100446.81;5096124;28;8858;-72
2021/07/19 08:24:23;;;;;;;;;20.00;20.00;;;;;36.27;38.17;100446.22;5096492;28;8846;-74
2021/07/19 08:27:20;;;;;;;;;21.20;21.20;;;;;36.24;37.32;100444.38;5096571;28;9550;-73
2021/07/19 08:30:17;;;;;;;;;23.20;23.20;;;;;36.41;37.28;100448.94;5097514;28;8859;-74
2021/07/19 08:33:13;;;;;;;;;21.60;21.00;;;;;36.61;37.22;100432.78;5095783;28;8829;-73
2021/07/19 08:36:09;;;;;;;;;17.00;17.00;;;;;36.70;36.59;100430.44;5094511;28;8928;-72
2021/07/19 08:39:05;;;;;;;;;22.20;22.20;;;;;36.67;37.52;100427.84;5091141;28;8839;-72
2021/07/19 08:42:02;;;;;;;;;23.00;23.00;;;;;36.98;37.29;100424.00;5073710;28;8845;-73
2021/07/19 08:44:58;;;;;;;;;25.20;25.00;;;;;37.33;37.07;100426.38;5047247;28;8829;-73
2021/07/19 08:47:59;;;;;;;;;24.60;24.60;;;;;37.17;37.12;100418.50;5075441;28;8866;-73
2021/07/19 08:51:00;;;;;;;;;21.40;21.40;;;;;37.33;36.56;100414.06;5074199;28;8854;-73
2021/07/19 08:53:59;;;;;;;;;22.20;22.20;;;;;37.21;36.68;100414.06;5062753;28;8868;-74
2021/07/19 08:56:56;;;;;;;;;15.40;15.40;;;;;37.50;36.19;100414.88;5075241;28;8940;-74
2021/07/19 08:59:54;;;;;;;;;23.00;23.00;;;;;36.90;35.92;100417.19;5075783;28;8857;-74
2021/07/19 09:02:50;;;;;;;;;22.60;22.60;;;;;36.91;36.71;100413.75;5075455;28;8825;-74
2021/07/19 09:05:47;;;;;;;;;29.80;29.00;;;;;37.07;36.57;100411.44;5075402;28;8853;-74
2021/07/19 09:08:47;;;;;;;;;30.80;29.80;;;;;37.39;37.04;100409.09;5062949;28;8876;-75
2021/07/19 09:11:49;;;;;;;;;28.40;28.00;;;;;37.13;38.11;100401.47;5064868;28;8854;-74
2021/07/19 09:14:46;;;;;;;;;28.20;26.80;;;;;37.16;36.37;100403.31;5061059;28;8971;-75
2021/07/19 09:17:42;;;;;;;;;29.00;28.20;;;;;37.18;37.50;100402.78;5074460;28;8867;-75
2021/07/19 09:20:42;;;;;;;;;38.60;33.20;;;;;36.98;36.26;100401.72;5074221;28;9551;-75
2021/07/19 09:23:38;;;;;;;;;41.00;33.00;;;;;37.07;37.12;100408.53;5074090;28;8852;-76
2021/07/19 09:26:35;;;;;;;;;20.20;20.20;;;;;37.46;35.00;100402.81;5074368;28;8851;-74
2021/07/19 09:29:37;;;;;;;;;18.40;18.40;;;;;37.65;34.76;100411.69;5073581;28;8833;-75
2021/07/19 09:32:34;;;;;;;;;20.60;20.40;;;;;37.88;34.07;100398.03;5074835;28;8846;-75
2021/07/19 09:35:32;;;;;;;;;41.00;35.60;;;;;37.77;35.33;100408.25;5073973;28;8834;-76
2021/07/19 09:38:30;;;;;;;;;21.20;21.20;;;;;37.72;34.88;100411.16;5073821;28;8826;-75
2021/07/19 09:41:25;;;;;;;;;20.60;20.60;;;;;37.85;35.54;100405.66;5076458;28;8964;-74
2021/07/19 09:44:23;;;;;;;;;20.20;19.60;;;;;37.89;33.59;100393.84;5080243;28;8841;-74
2021/07/19 09:47:30;;;;;;;;;24.60;24.60;;;;;38.02;35.06;100396.94;5082882;28;8911;-74
2021/07/19 09:50:25;;;;;;;;;28.20;27.00;;;;;38.14;34.12;100395.59;5080411;28;8856;-75
2021/07/19 09:53:36;;;;;;;;;22.80;22.80;;;;;37.91;34.54;100396.97;5073925;28;8842;-74
2021/07/19 09:56:32;;;;;;;;;28.40;28.00;;;;;37.99;34.75;100398.78;5080844;28;8826;-74
2021/07/19 09:59:28;;;;;;;;;24.60;24.60;;;;;37.93;36.10;100397.22;5071521;28;8952;-74
2021/07/19 10:02:36;;;;;;;;;26.20;25.20;;;;;38.08;35.25;100389.84;5073191;28;8862;-76
2021/07/19 10:05:31;;;;;;;;;14.60;14.40;;;;;38.18;34.63;100396.09;5073937;28;8918;-74
2021/07/19 10:08:28;;;;;;;;;23.60;22.40;;;;;38.34;33.24;100395.28;5076150;28;8860;-75
2021/07/19 10:11:23;;;;;;;;;27.40;26.20;;;;;38.15;34.56;100393.50;5080592;28;8846;-75
2021/07/19 10:14:35;;;;;;;;;30.60;29.60;;;;;37.99;34.55;100390.13;5072779;28;8871;-75
2021/07/19 10:17:31;;;;;;;;;22.20;21.80;;;;;38.00;34.65;100390.91;5072831;28;8854;-76
2021/07/19 10:20:26;;;;;;;;;31.60;30.00;;;;;38.25;34.75;100386.13;5080259;28;8851;-76
2021/07/19 10:23:22;;;;;;;;;34.00;31.20;;;;;38.31;34.80;100387.66;5075319;28;8954;-76
2021/07/19 10:26:18;;;;;;;;;30.60;28.80;;;;;38.21;34.37;100392.16;5071940;28;8841;-75
2021/07/19 10:29:16;;;;;;;;;20.80;20.80;;;;;38.39;34.88;100385.78;5079680;28;8839;-76
2021/07/19 10:32:15;;;;;;;;;32.00;29.60;;;;;38.57;33.51;100383.56;5079044;28;8923;-77
2021/07/19 10:35:12;;;;;;;;;28.40;28.00;;;;;38.48;33.92;100381.00;5073189;28;8948;-77
2021/07/19 10:38:17;;;;;;;;;45.60;38.00;;;;;38.83;34.32;100377.41;5088466;28;9649;-77
2021/07/19 10:41:13;;;;;;;;;25.60;25.60;;;;;38.56;33.41;100371.25;5094098;28;8849;-77
2021/07/19 10:44:12;;;;;;;;;42.60;34.20;;;;;38.75;33.49;100371.44;5109310;28;8825;-76
2021/07/19 10:47:17;;;;;;;;;23.20;22.80;;;;;38.94;32.92;100375.22;5099099;28;8843;-76
2021/07/19 10:50:17;;;;;;;;;22.80;20.60;;;;;38.57;32.46;100372.84;5098759;28;8827;-76
2021/07/19 10:53:22;;;;;;;;;27.40;26.00;;;;;39.03;33.11;100371.22;5092874;28;8851;-75
2021/07/19 10:56:28;;;;;;;;;26.00;26.00;;;;;38.85;33.05;100369.78;5092018;28;8852;-75
2021/07/19 10:59:28;;;;;;;;;20.40;20.40;;;;;39.29;32.68;100364.97;5097486;28;8906;-76
2021/07/19 11:02:29;;;;;;;;;23.40;23.40;;;;;39.14;33.09;100365.38;5100408;28;8823;-76
2021/07/19 11:05:33;;;;;;;;;23.60;23.60;;;;;39.31;32.41;100352.88;5091359;28;8949;-78
2021/07/19 11:08:30;;;;;;;;;28.40;27.60;;;;;39.33;32.92;100362.56;5107400;28;8822;-75
2021/07/19 11:11:00;;;;;;;;;32.80;28.40;;;;;39.30;33.34;100357.09;5092697;28;8828;-76
2021/07/19 11:13:35;;;;;;;;;25.60;25.60;;;;;38.56;33.28;100361.78;5104293;28;8852;-75
2021/07/19 11:16:50;;;;;;;;;29.20;27.00;;;;;38.97;33.32;100356.03;5091142;28;8843;-76
2021/07/19 11:19:49;;;;;;;;;33.00;31.00;;;;;38.98;33.08;100357.59;5090463;28;8828;-76
2021/07/19 11:22:45;;;;;;;;;26.20;26.20;;;;;39.06;32.46;100346.22;5094247;28;8837;-76
2021/07/19 11:25:46;;;;;;;;;0.60;0.00;;;;;39.12;32.88;100347.75;5098463;28;8949;-75
2021/07/19 11:28:42;;;;;;;;;24.20;24.20;;;;;39.33;34.74;100348.09;5103617;28;8932;-75
2021/07/19 11:31:38;;;;;;;;;28.80;27.60;;;;;38.96;32.88;100342.91;5095441;28;8831;-76
2021/07/19 11:34:34;;;;;;;;;26.00;26.00;;;;;39.07;32.21;100345.69;5094896;28;8843;-75
2021/07/19 11:37:36;;;;;;;;;40.80;34.00;;;;;39.20;32.72;100342.19;5095469;28;8954;-76
2021/07/19 11:40:38;;;;;;;;;35.40;32.20;;;;;38.83;33.40;100339.84;5088585;28;8847;-75
2021/07/19 11:43:36;;;;;;;;;32.20;29.60;;;;;38.41;32.92;100329.59;5076194;28;8849;-76
2021/07/19 11:46:37;;;;;;;;;28.20;27.80;;;;;38.67;34.35;100322.06;5082464;28;8842;-77
2021/07/19 11:49:35;;;;;;;;;32.00;30.00;;;;;38.77;33.31;100325.44;5075197;28;8837;-77
2021/07/19 11:52:31;;;;;;;;;24.20;24.20;;;;;38.95;33.43;100321.06;5078275;28;8936;-76
2021/07/19 11:55:27;;;;;;;;;26.60;25.60;;;;;39.00;33.25;100326.03;5077553;28;9594;-76
2021/07/19 11:58:23;;;;;;;;;18.80;18.80;;;;;38.92;33.05;100322.94;5069043;28;8941;-76
2021/07/19 12:01:23;;;;;;;;;23.20;23.20;;;;;39.35;34.03;100318.66;5083363;28;8855;-76
2021/07/19 12:04:21;;;;;;;;;27.40;27.40;;;;;39.22;33.65;100316.41;5083412;28;9668;-75
2021/07/19 12:07:18;;;;;;;;;28.00;28.00;;;;;39.48;32.67;100321.66;5075573;28;8829;-76
2021/07/19 12:10:20;;;;;;;;;26.80;25.20;;;;;39.15;32.35;100322.78;5083473;28;8850;-74
2021/07/19 12:13:16;;;;;;;;;24.20;23.60;;;;;39.01;33.49;100326.81;5078865;28;8824;-76
2021/07/19 12:16:16;;;;;;;;;21.00;21.00;;;;;39.37;32.80;100321.78;5079329;28;8847;-77
2021/07/19 12:19:19;;;;;;;;;29.80;28.80;;;;;39.55;31.76;100323.16;5073730;28;8844;-77
2021/07/19 12:22:18;;;;;;;;;28.40;25.60;;;;;39.47;33.25;100315.09;5090272;28;8835;-76
2021/07/19 12:25:14;;;;;;;;;38.40;34.20;;;;;39.55;33.40;100314.47;5075844;28;8822;-75
2021/07/19 12:28:09;;;;;;;;;29.60;28.80;;;;;39.67;32.98;100310.16;5069435;28;8837;-75
2021/07/19 12:31:16;;;;;;;;;22.00;22.00;;;;;39.18;32.78;100313.00;5075527;28;8935;-77
2021/07/19 12:34:17;;;;;;;;;24.60;24.00;;;;;39.45;32.10;100311.19;5088188;28;8838;-77
2021/07/19 12:37:19;;;;;;;;;26.60;26.60;;;;;39.95;33.32;100307.72;5081025;28;9609;-77
2021/07/19 12:40:15;;;;;;;;;25.80;25.80;;;;;39.88;32.09;100308.34;5073851;28;8834;-77
2021/07/19 12:43:11;;;;;;;;;29.40;28.60;;;;;40.14;31.05;100306.97;5069095;28;8926;-76
2021/07/19 12:46:10;;;;;;;;;30.40;29.00;;;;;39.98;31.98;100306.63;5078345;28;8860;-77
2021/07/19 12:49:06;;;;;;;;;30.20;29.20;;;;;40.13;31.23;100309.09;5074170;28;8830;-77
2021/07/19 12:52:16;;;;;;;;;22.20;22.20;;;;;39.83;31.71;100297.59;5073835;28;9079;-76
2021/07/19 12:55:19;;;;;;;;;24.20;23.60;;;;;39.75;32.15;100300.34;5075279;28;8833;-76
2021/07/19 12:58:16;;;;;;;;;24.40;24.40;;;;;40.16;31.28;100302.19;5076523;28;8866;-75
2021/07/19 13:01:12;;;;;;;;;20.20;20.20;;;;;40.19;30.93;100309.03;5076998;28;8810;-76
2021/07/19 13:04:13;;;;;;;;;25.00;25.00;;;;;40.07;30.88;100299.69;5075960;28;8858;-75
2021/07/19 13:07:09;;;;;;;;;32.00;30.60;;;;;40.25;30.55;100304.69;5074704;28;8919;-75
2021/07/19 13:10:13;;;;;;;;;30.00;26.80;;;;;40.19;31.68;100304.00;5064834;28;10436;-75
2021/07/19 13:13:09;;;;;;;;;20.00;20.00;;;;;40.00;29.59;100300.28;5084864;28;8840;-75
2021/07/19 13:16:04;;;;;;;;;22.80;22.80;;;;;39.56;30.40;100301.56;5081370;28;8860;-75
2021/07/19 13:19:00;;;;;;;;;25.80;25.80;;;;;39.81;30.67;100300.28;5065813;28;8960;-75
2021/07/19 13:21:56;;;;;;;;;24.60;24.00;;;;;39.53;30.38;100300.56;5058569;28;8814;-75
2021/07/19 13:24:52;;;;;;;;;23.60;22.80;;;;;39.89;31.13;100309.13;5050452;28;9003;-74